createdAt,value
2022-12-27T00:01:13.657Z,24.83
2022-12-27T00:03:42.606Z,23.73
2022-12-27T00:06:15.897Z,27.53
2022-12-27T00:08:46.309Z,25.20
2022-12-27T00:11:16.796Z,24.30
2022-12-27T00:13:46.010Z,25.50
2022-12-27T00:16:17.097Z,25.13
2022-12-27T00:18:46.106Z,23.43
2022-12-27T00:21:17.207Z,24.67
2022-12-27T00:23:49.567Z,23.83
2022-12-27T00:26:20.341Z,19.60
2022-12-27T00:28:49.465Z,22.67
2022-12-27T00:31:19.044Z,21.37
2022-12-27T00:33:49.132Z,22.93
2022-12-27T00:36:21.537Z,22.47
2022-12-27T00:38:50.623Z,22.88
2022-12-27T00:41:19.632Z,19.03
2022-12-27T00:43:54.717Z,20.57
2022-12-27T00:46:23.462Z,21.10
2022-12-27T00:48:52.431Z,17.20
2022-12-27T00:51:24.185Z,17.70
2022-12-27T00:53:54.304Z,20.33
2022-12-27T00:56:24.698Z,19.90
2022-12-27T00:58:55.646Z,20.33
2022-12-27T01:01:25.908Z,18.67
2022-12-27T01:03:55.100Z,20.17
2022-12-27T01:06:29.175Z,19.07
2022-12-27T01:08:58.279Z,19.23
2022-12-27T01:11:28.898Z,17.17
2022-12-27T01:13:58.211Z,19.73
2022-12-27T01:16:27.985Z,17.30
2022-12-27T01:18:57.224Z,20.30
2022-12-27T01:21:28.068Z,18.77
2022-12-27T01:23:56.623Z,18.40
2022-12-27T01:26:25.565Z,18.30
2022-12-27T01:28:54.902Z,19.90
2022-12-27T01:31:26.016Z,19.20
2022-12-27T01:33:57.145Z,20.60
2022-12-27T01:36:28.652Z,18.80
2022-12-27T01:38:57.244Z,19.20
2022-12-27T01:41:45.024Z,19.13
2022-12-27T01:44:53.494Z,22.57
2022-12-27T01:47:35.041Z,18.97
2022-12-27T01:50:10.813Z,19.23
2022-12-27T01:52:44.539Z,18.40
2022-12-27T01:55:26.615Z,20.40
2022-12-27T01:58:00.108Z,19.57
2022-12-27T02:00:28.862Z,19.17
2022-12-27T02:02:57.987Z,19.80
2022-12-27T02:05:27.749Z,18.53
2022-12-27T02:08:10.079Z,18.90
2022-12-27T02:10:38.973Z,19.43
2022-12-27T02:13:08.044Z,22.33
2022-12-27T02:15:36.581Z,20.73
2022-12-27T02:18:05.640Z,19.97
2022-12-27T02:21:01.964Z,20.27
2022-12-27T02:24:09.696Z,22.13
2022-12-27T02:26:50.526Z,26.00
2022-12-27T02:30:02.211Z,20.10
2022-12-27T02:32:38.094Z,32.40
2022-12-27T02:35:15.623Z,19.10
2022-12-27T02:37:48.607Z,21.57
2022-12-27T02:40:40.002Z,21.20
2022-12-27T02:43:26.977Z,22.43
2022-12-27T02:46:21.842Z,23.70
2022-12-27T02:49:14.630Z,26.00
2022-12-27T02:52:17.939Z,19.75
2022-12-27T02:55:12.613Z,21.30
2022-12-27T02:57:48.813Z,27.63
2022-12-27T03:00:37.459Z,28.30
2022-12-27T03:03:32.467Z,28.10
2022-12-27T03:06:42.898Z,26.27
2022-12-27T03:09:50.506Z,31.13
2022-12-27T03:12:46.205Z,31.53
2022-12-27T03:15:49.275Z,30.57
2022-12-27T03:18:24.368Z,42.57
2022-12-27T03:21:11.325Z,23.70
2022-12-27T03:24:01.866Z,24.87
2022-12-27T03:26:33.980Z,7.50
2022-12-27T03:29:21.367Z,7.90
2022-12-27T03:32:11.737Z,21.57
2022-12-27T03:34:44.351Z,14.17
2022-12-27T03:37:33.232Z,20.57
2022-12-27T03:40:08.611Z,17.90
2022-12-27T03:42:58.749Z,14.63
2022-12-27T03:45:45.562Z,14.53
2022-12-27T03:48:17.465Z,19.60
2022-12-27T03:50:51.418Z,12.77
2022-12-27T03:53:25.868Z,17.53
2022-12-27T03:55:56.141Z,15.57
2022-12-27T03:58:24.676Z,14.47
2022-12-27T04:00:53.275Z,18.47
2022-12-27T04:03:21.881Z,11.97
2022-12-27T04:05:50.556Z,13.37
2022-12-27T04:08:36.690Z,19.67
2022-12-27T04:11:24.183Z,20.73
2022-12-27T04:14:09.988Z,23.67
2022-12-27T04:16:56.250Z,32.30
2022-12-27T04:19:42.295Z,30.27
2022-12-27T04:22:28.196Z,18.33
2022-12-27T04:25:14.367Z,20.83
2022-12-27T04:28:02.122Z,23.80
2022-12-27T04:30:48.221Z,18.40
2022-12-27T04:33:34.572Z,12.20
2022-12-27T04:36:06.365Z,20.07
2022-12-27T04:38:35.300Z,18.43
2022-12-27T04:41:21.540Z,16.50
2022-12-27T04:44:09.126Z,13.70
2022-12-27T04:46:55.497Z,13.20
2022-12-27T04:49:43.093Z,12.80
2022-12-27T04:52:33.107Z,15.30
2022-12-27T04:55:07.022Z,15.03
2022-12-27T04:57:35.679Z,12.77
2022-12-27T05:00:25.847Z,11.03
2022-12-27T05:02:55.169Z,13.97
2022-12-27T05:05:24.595Z,36.55
2022-12-27T05:08:12.705Z,6.90
2022-12-27T05:10:58.836Z,11.33
2022-12-27T05:13:44.953Z,21.53
2022-12-27T05:16:15.729Z,17.97
2022-12-27T05:18:44.490Z,33.23
2022-12-27T05:21:13.104Z,25.97
2022-12-27T05:24:05.140Z,24.30
2022-12-27T05:26:34.340Z,19.00
2022-12-27T05:29:03.463Z,14.27
2022-12-27T05:31:36.512Z,19.63
2022-12-27T05:34:16.984Z,22.13
2022-12-27T05:36:45.924Z,23.47
2022-12-27T05:39:15.018Z,26.13
2022-12-27T05:42:04.895Z,20.07
2022-12-27T05:44:34.363Z,21.33
2022-12-27T05:49:48.301Z,20.57
2022-12-27T05:52:40.926Z,23.73
2022-12-27T05:55:18.249Z,24.00
2022-12-27T05:57:47.201Z,21.60
2022-12-27T06:00:17.086Z,19.70
2022-12-27T06:02:47.366Z,20.97
2022-12-27T06:05:16.632Z,14.87
2022-12-27T06:07:45.380Z,10.70
2022-12-27T06:10:14.160Z,9.55
2022-12-27T06:12:42.766Z,7.80
2022-12-27T06:15:12.436Z,12.57
2022-12-27T06:17:41.227Z,13.00
2022-12-27T06:20:12.041Z,13.23
2022-12-27T06:22:41.174Z,10.77
2022-12-27T06:25:14.133Z,14.07
2022-12-27T06:27:43.624Z,15.57
2022-12-27T06:30:16.009Z,15.83
2022-12-27T06:32:44.732Z,20.30
2022-12-27T06:35:14.796Z,24.17
2022-12-27T06:37:43.658Z,31.00
2022-12-27T06:40:13.293Z,28.90
2022-12-27T06:42:45.824Z,22.33
2022-12-27T06:45:14.449Z,22.60
2022-12-27T06:47:43.102Z,15.20
2022-12-27T06:50:14.073Z,15.23
2022-12-27T06:52:42.820Z,19.03
2022-12-27T06:55:11.756Z,20.27
2022-12-27T06:57:40.461Z,20.20
2022-12-27T07:00:10.506Z,16.93
2022-12-27T07:02:40.216Z,19.57
2022-12-27T07:05:09.600Z,20.63
2022-12-27T07:07:39.701Z,17.00
2022-12-27T07:10:09.506Z,25.53
2022-12-27T07:12:38.663Z,28.85
2022-12-27T07:15:08.696Z,12.63
2022-12-27T07:17:38.657Z,12.60
2022-12-27T07:20:08.707Z,15.40
2022-12-27T07:22:38.879Z,20.37
2022-12-27T07:25:08.509Z,20.97
2022-12-27T07:27:37.470Z,15.47
2022-12-27T07:30:07.549Z,17.17
2022-12-27T07:32:36.167Z,4.47
2022-12-27T07:35:05.381Z,6.00
2022-12-27T07:37:34.471Z,19.27
2022-12-27T07:40:06.488Z,15.70
2022-12-27T07:42:35.133Z,17.27
2022-12-27T07:45:04.382Z,11.60
2022-12-27T07:47:32.986Z,52.22
2022-12-27T07:50:01.972Z,5.30
2022-12-27T07:52:31.548Z,14.33
2022-12-27T07:55:00.138Z,10.87
2022-12-27T07:57:31.315Z,17.50
2022-12-27T08:00:00.175Z,14.77
2022-12-27T08:02:29.352Z,14.17
2022-12-27T08:05:01.945Z,12.40
2022-12-27T08:07:30.893Z,13.73
2022-12-27T08:09:59.722Z,13.90
2022-12-27T08:12:28.346Z,12.70
2022-12-27T08:14:58.265Z,12.80
2022-12-27T08:17:28.491Z,12.37
2022-12-27T08:19:57.516Z,14.53
2022-12-27T08:22:26.145Z,11.03
2022-12-27T08:24:56.122Z,12.23
2022-12-27T08:27:25.964Z,18.13
2022-12-27T08:29:54.568Z,27.77
2022-12-27T08:32:25.067Z,23.13
2022-12-27T08:34:54.019Z,20.30
2022-12-27T08:37:24.173Z,24.80
2022-12-27T08:39:55.437Z,19.70
2022-12-27T08:42:27.879Z,20.67
2022-12-27T08:44:56.467Z,21.70
2022-12-27T08:47:26.503Z,18.80
2022-12-27T08:49:55.161Z,27.93
2022-12-27T08:52:24.063Z,28.90
2022-12-27T08:54:52.635Z,21.67
2022-12-27T08:57:21.320Z,20.83
2022-12-27T08:59:49.856Z,23.30
2022-12-27T09:02:20.610Z,23.53
2022-12-27T09:04:50.637Z,17.77
2022-12-27T09:07:19.218Z,16.10
2022-12-27T09:09:47.853Z,14.43
2022-12-27T09:12:16.681Z,7.38
2022-12-27T09:14:45.688Z,6.97
2022-12-27T09:17:14.239Z,8.10
2022-12-27T09:19:42.870Z,12.40
2022-12-27T09:22:12.890Z,11.30
2022-12-27T09:24:42.004Z,10.77
2022-12-27T09:27:10.871Z,12.00
2022-12-27T09:29:48.088Z,10.70
2022-12-27T09:32:17.167Z,11.40
2022-12-27T09:34:45.789Z,12.63
2022-12-27T09:37:15.876Z,10.57
2022-12-27T09:39:44.402Z,12.57
2022-12-27T09:45:22.179Z,17.50
2022-12-27T09:47:57.276Z,12.30
2022-12-27T09:50:30.172Z,9.80
2022-12-27T09:53:06.667Z,9.33
2022-12-27T09:55:46.870Z,9.03
2022-12-27T09:58:30.411Z,8.73
2022-12-27T10:00:59.604Z,15.53
2022-12-27T10:03:31.269Z,9.73
2022-12-27T10:06:19.171Z,8.77
2022-12-27T10:08:57.941Z,34.27
2022-12-27T10:11:40.208Z,15.20
2022-12-27T10:14:23.367Z,20.33
2022-12-27T10:16:59.632Z,9.35
2022-12-27T10:19:37.216Z,10.13
2022-12-27T10:22:17.624Z,8.57
2022-12-27T10:24:51.607Z,8.00
2022-12-27T10:27:25.236Z,7.97
2022-12-27T10:29:58.957Z,6.60
2022-12-27T10:32:28.164Z,6.90
2022-12-27T10:35:00.185Z,9.13
2022-12-27T10:37:36.929Z,7.63
2022-12-27T10:40:14.447Z,9.57
2022-12-27T10:42:50.154Z,11.10
2022-12-27T10:45:33.801Z,10.80
2022-12-27T10:48:19.473Z,11.33
2022-12-27T10:50:59.811Z,10.73
2022-12-27T10:53:40.504Z,12.20
2022-12-27T10:56:26.232Z,11.03
2022-12-27T10:58:58.981Z,10.23
2022-12-27T11:01:29.522Z,17.77
2022-12-27T11:04:19.432Z,10.07
2022-12-27T11:06:50.002Z,15.93
2022-12-27T11:09:28.095Z,10.93
2022-12-27T11:12:18.787Z,14.27
2022-12-27T11:15:01.605Z,10.67
2022-12-27T11:17:37.979Z,11.07
2022-12-27T11:20:20.736Z,11.63
2022-12-27T11:22:53.064Z,12.80
2022-12-27T11:25:22.247Z,11.80
2022-12-27T11:27:54.820Z,13.63
2022-12-27T11:30:25.733Z,9.53
2022-12-27T11:32:55.028Z,27.10
2022-12-27T11:35:25.122Z,22.50
2022-12-27T11:37:53.888Z,23.33
2022-12-27T11:40:25.805Z,16.07
2022-12-27T11:43:08.251Z,10.50
2022-12-27T11:45:42.696Z,22.07
2022-12-27T11:48:22.369Z,19.03
2022-12-27T11:51:26.369Z,17.90
2022-12-27T11:54:15.150Z,24.13
2022-12-27T11:56:49.580Z,25.63
2022-12-27T11:59:45.658Z,21.77
2022-12-27T12:02:32.387Z,21.43
2022-12-27T12:05:32.550Z,59.40
2022-12-27T12:08:22.520Z,27.47
2022-12-27T12:10:56.891Z,17.23
2022-12-27T12:14:00.175Z,14.93
2022-12-27T12:16:46.601Z,27.87
2022-12-27T12:19:30.042Z,22.63
2022-12-27T12:22:11.639Z,20.57
2022-12-27T12:25:01.422Z,18.83
2022-12-27T12:27:44.162Z,19.57
2022-12-27T12:30:29.794Z,18.37
2022-12-27T12:33:10.971Z,17.90
2022-12-27T12:35:56.687Z,23.67
2022-12-27T12:38:33.937Z,17.57
2022-12-27T12:41:32.925Z,16.93
2022-12-27T12:44:41.044Z,25.13
2022-12-27T12:47:25.868Z,30.60
2022-12-27T12:50:19.883Z,23.97
2022-12-27T12:53:10.956Z,30.00
2022-12-27T12:55:56.007Z,29.50
2022-12-27T12:58:50.267Z,31.47
2022-12-27T13:01:36.613Z,36.33
2022-12-27T13:04:24.919Z,34.63
2022-12-27T13:07:23.735Z,10.35
2022-12-27T13:10:16.381Z,13.83
2022-12-27T13:12:55.631Z,26.43
2022-12-27T13:15:37.715Z,37.73
2022-12-27T13:18:21.782Z,37.20
2022-12-27T13:21:13.978Z,45.60
2022-12-27T13:24:04.247Z,32.03
2022-12-27T13:26:42.435Z,42.23
2022-12-27T13:29:37.480Z,32.43
2022-12-27T13:32:16.642Z,34.67
2022-12-27T13:34:55.725Z,33.93
2022-12-27T13:37:37.313Z,30.63
2022-12-27T13:40:32.363Z,25.97
2022-12-27T13:43:39.430Z,33.30
2022-12-27T13:46:42.406Z,34.30
2022-12-27T13:49:43.321Z,30.53
2022-12-27T13:52:35.616Z,34.33
2022-12-27T13:55:37.926Z,32.47
2022-12-27T13:58:36.058Z,27.60
2022-12-27T14:01:31.098Z,26.20
2022-12-27T14:04:14.842Z,38.17
2022-12-27T14:07:09.585Z,32.23
2022-12-27T14:09:59.392Z,25.50
2022-12-27T14:12:52.882Z,27.60
2022-12-27T14:15:25.459Z,30.93
2022-12-27T14:18:09.523Z,28.30
2022-12-27T14:20:57.025Z,30.97
2022-12-27T14:23:56.363Z,35.60
2022-12-27T14:26:54.563Z,29.70
2022-12-27T14:29:56.744Z,33.03
2022-12-27T14:33:03.904Z,29.37
2022-12-27T14:35:57.882Z,24.73
2022-12-27T14:39:02.071Z,31.60
2022-12-27T14:42:06.083Z,30.37
2022-12-27T14:45:22.000Z,35.87
2022-12-27T14:48:40.258Z,35.97
2022-12-27T14:51:59.812Z,30.40
2022-12-27T14:55:30.548Z,31.57
2022-12-27T14:58:49.448Z,25.77
2022-12-27T15:02:30.377Z,30.10
2022-12-27T15:05:13.627Z,34.13
2022-12-27T15:08:21.180Z,52.67
2022-12-27T15:11:03.751Z,68.50
2022-12-27T15:14:02.891Z,55.87
2022-12-27T15:17:06.758Z,57.60
2022-12-27T15:19:48.508Z,57.83
2022-12-27T15:22:31.178Z,59.83
2022-12-27T15:25:08.575Z,57.60
2022-12-27T15:27:51.617Z,53.63
2022-12-27T15:30:24.592Z,46.23
2022-12-27T15:33:04.736Z,30.63
2022-12-27T15:36:04.430Z,41.27
2022-12-27T15:38:53.032Z,42.73
2022-12-27T15:41:38.606Z,38.90
2022-12-27T15:44:45.249Z,41.73
2022-12-27T15:47:48.734Z,34.93
2022-12-27T15:50:37.066Z,36.53
2022-12-27T15:53:33.550Z,36.40
2022-12-27T15:56:35.071Z,30.60
2022-12-27T15:59:39.180Z,26.17
2022-12-27T16:02:31.028Z,29.60
2022-12-27T16:05:06.641Z,26.20
2022-12-27T16:07:48.792Z,23.83
2022-12-27T16:10:50.174Z,25.80
2022-12-27T16:13:37.668Z,24.33
2022-12-27T16:16:33.931Z,23.73
2022-12-27T16:19:20.410Z,23.67
2022-12-27T16:21:49.683Z,24.40
2022-12-27T16:24:22.025Z,24.33
2022-12-27T16:26:56.255Z,23.43
2022-12-27T16:29:30.126Z,26.13
2022-12-27T16:32:16.630Z,23.40
2022-12-27T16:34:48.802Z,23.13
2022-12-27T16:37:26.167Z,23.90
2022-12-27T16:40:15.057Z,23.23
2022-12-27T16:43:28.759Z,22.63
2022-12-27T16:46:10.218Z,27.27
2022-12-27T16:48:56.004Z,25.47
2022-12-27T16:51:34.703Z,23.37
2022-12-27T16:54:16.830Z,26.60
2022-12-27T16:56:48.441Z,25.80
2022-12-27T16:59:54.181Z,27.43
2022-12-27T17:02:34.749Z,25.60
2022-12-27T17:05:03.569Z,31.27
2022-12-27T17:07:51.740Z,25.27
2022-12-27T17:10:46.178Z,27.40
2022-12-27T17:13:19.503Z,27.07
2022-12-27T17:15:54.627Z,28.87
2022-12-27T17:18:33.253Z,27.50
2022-12-27T17:21:05.934Z,27.43
2022-12-27T17:23:41.405Z,29.33
2022-12-27T17:26:40.395Z,24.63
2022-12-27T17:29:29.543Z,32.27
2022-12-27T17:32:05.526Z,26.33
2022-12-27T17:34:47.334Z,28.67
2022-12-27T17:37:22.393Z,31.83
2022-12-27T17:40:04.643Z,37.30
2022-12-27T17:42:56.774Z,31.30
2022-12-27T17:45:35.657Z,34.87
2022-12-27T17:48:25.166Z,27.63
2022-12-27T17:50:59.285Z,36.17
2022-12-27T17:53:45.237Z,54.53
2022-12-27T17:56:35.074Z,55.20
2022-12-27T17:59:12.956Z,44.13
2022-12-27T18:01:47.643Z,60.30
2022-12-27T18:04:24.580Z,45.73
2022-12-27T18:07:00.224Z,45.07
2022-12-27T18:09:39.883Z,37.13
2022-12-27T18:12:15.996Z,46.30
2022-12-27T18:14:45.864Z,50.17
2022-12-27T18:17:29.059Z,37.00
2022-12-27T18:19:58.575Z,32.50
2022-12-27T18:22:28.851Z,33.00
2022-12-27T18:24:57.404Z,27.10
2022-12-27T18:27:27.027Z,31.27
2022-12-27T18:29:55.637Z,30.77
2022-12-27T18:32:26.313Z,31.20
2022-12-27T18:34:58.577Z,26.37
2022-12-27T18:37:29.764Z,33.30
2022-12-27T18:40:01.634Z,28.07
2022-12-27T18:42:34.499Z,28.53
2022-12-27T18:45:05.956Z,29.23
2022-12-27T18:47:39.664Z,31.80
2022-12-27T18:50:18.931Z,27.87
2022-12-27T18:52:54.755Z,41.40
2022-12-27T18:55:27.812Z,39.47
2022-12-27T18:58:05.792Z,35.27
2022-12-27T19:00:47.585Z,46.83
2022-12-27T19:03:18.097Z,31.77
2022-12-27T19:06:01.636Z,34.47
2022-12-27T19:08:36.423Z,29.63
2022-12-27T19:11:06.203Z,30.93
2022-12-27T19:13:44.052Z,39.23
2022-12-27T19:16:24.482Z,31.77
2022-12-27T19:18:55.992Z,38.00
2022-12-27T19:21:32.316Z,34.57
2022-12-27T19:24:21.627Z,40.40
2022-12-27T19:26:50.762Z,33.70
2022-12-27T19:29:21.789Z,32.30
2022-12-27T19:31:56.726Z,39.97
2022-12-27T19:34:28.417Z,34.90
2022-12-27T19:36:57.746Z,39.53
2022-12-27T19:39:30.755Z,44.13
2022-12-27T19:42:02.505Z,31.97
2022-12-27T19:44:31.527Z,33.23
2022-12-27T19:47:00.128Z,35.40
2022-12-27T19:49:42.714Z,30.73
2022-12-27T19:52:16.635Z,35.03
2022-12-27T19:54:46.877Z,39.80
2022-12-27T19:57:15.727Z,34.93
2022-12-27T19:59:44.400Z,19.13
2022-12-27T20:02:13.237Z,14.83
2022-12-27T20:04:42.138Z,12.10
2022-12-27T20:07:19.677Z,15.03
2022-12-27T20:09:49.753Z,19.87
2022-12-27T20:12:18.476Z,33.00
2022-12-27T20:14:47.670Z,29.43
2022-12-27T20:17:16.664Z,36.20
2022-12-27T20:19:45.340Z,50.10
2022-12-27T20:22:13.970Z,44.20
2022-12-27T20:24:42.709Z,29.17
2022-12-27T20:27:13.002Z,33.70
2022-12-27T20:29:41.528Z,35.80
2022-12-27T20:32:10.130Z,40.57
2022-12-27T20:34:38.800Z,41.73
2022-12-27T20:37:07.655Z,34.13
2022-12-27T20:39:36.220Z,36.27
2022-12-27T20:42:04.910Z,32.07
2022-12-27T20:44:36.023Z,36.07
2022-12-27T20:47:04.601Z,30.93
2022-12-27T20:49:33.317Z,32.90
2022-12-27T20:52:03.321Z,40.63
2022-12-27T20:54:32.179Z,28.97
2022-12-27T20:57:03.290Z,38.03
2022-12-27T20:59:31.946Z,30.37
2022-12-27T21:02:02.091Z,33.57
2022-12-27T21:04:30.900Z,34.13
2022-12-27T21:06:59.664Z,34.33
2022-12-27T21:09:28.515Z,32.20
2022-12-27T21:11:58.883Z,39.57
2022-12-27T21:14:28.176Z,33.53
2022-12-27T21:16:57.377Z,29.87
2022-12-27T21:19:27.587Z,30.40
2022-12-27T21:21:56.211Z,30.10
2022-12-27T21:24:24.968Z,26.93
2022-12-27T21:26:56.605Z,24.27
2022-12-27T21:29:25.418Z,14.60
2022-12-27T21:31:54.121Z,12.87
2022-12-27T21:34:22.833Z,14.33
2022-12-27T21:36:53.723Z,16.80
2022-12-27T21:39:22.494Z,23.13
2022-12-27T21:41:51.332Z,23.73
2022-12-27T21:44:21.361Z,13.15
2022-12-27T21:46:49.902Z,17.00
2022-12-27T21:49:18.662Z,17.70
2022-12-27T21:51:47.410Z,19.63
2022-12-27T21:54:17.433Z,22.57
2022-12-27T21:56:46.065Z,27.60
2022-12-27T21:59:14.806Z,26.00
2022-12-27T22:01:50.328Z,30.13
2022-12-27T22:04:20.003Z,35.97
2022-12-27T22:06:48.865Z,27.13
2022-12-27T22:09:19.906Z,25.30
2022-12-27T22:11:50.109Z,26.83
2022-12-27T22:14:23.463Z,33.40
2022-12-27T22:16:54.202Z,34.03
2022-12-27T22:19:23.009Z,31.73
2022-12-27T22:21:51.765Z,30.17
2022-12-27T22:24:21.821Z,28.87
2022-12-27T22:26:50.875Z,28.87
2022-12-27T22:29:19.653Z,34.67
2022-12-27T22:31:52.834Z,34.87
2022-12-27T22:34:21.474Z,32.30
2022-12-27T22:36:53.052Z,35.93
2022-12-27T22:39:23.079Z,38.40
2022-12-27T22:41:51.695Z,36.63
2022-12-27T22:44:20.380Z,33.53
2022-12-27T22:49:41.750Z,13.35
2022-12-27T22:52:10.391Z,13.13
2022-12-27T22:55:05.880Z,22.40
2022-12-27T22:57:29.298Z,41.80
2022-12-27T22:59:58.056Z,34.43
2022-12-27T23:02:26.763Z,26.57
2022-12-27T23:04:55.337Z,22.87
2022-12-27T23:08:05.782Z,31.30
2022-12-27T23:10:14.071Z,33.23
2022-12-27T23:12:42.729Z,35.13
2022-12-27T23:15:12.453Z,37.27
2022-12-27T23:17:41.018Z,46.65
2022-12-27T23:20:11.199Z,18.07
2022-12-27T23:22:39.962Z,14.27
2022-12-27T23:25:09.172Z,15.37
2022-12-27T23:27:39.460Z,19.93
2022-12-27T23:30:09.537Z,30.30
2022-12-27T23:32:38.349Z,29.37
2022-12-27T23:35:07.687Z,38.83
2022-12-27T23:37:36.346Z,34.30
2022-12-27T23:40:05.295Z,27.17
2022-12-27T23:42:33.907Z,35.43
2022-12-27T23:45:04.041Z,31.83
2022-12-27T23:47:32.638Z,36.00
2022-12-27T23:50:01.274Z,34.30
2022-12-27T23:52:30.021Z,32.07
2022-12-27T23:54:59.035Z,32.73
2022-12-27T23:57:27.745Z,27.83
2022-12-27T23:59:56.598Z,33.37
